sensor_id;sensor_type;location;lat;lon;timestamp;temperature;humidity
41985;DHT22;28319;48.116;10.818;2024-01-06T00:00:31;5.60;99.90
41985;DHT22;28319;48.116;10.818;2024-01-06T00:05:34;5.60;99.90
41985;DHT22;28319;48.116;10.818;2024-01-06T00:10:37;5.60;99.90
41985;DHT22;28319;48.116;10.818;2024-01-06T00:15:39;5.50;99.90
41985;DHT22;28319;48.116;10.818;2024-01-06T00:20:41;5.40;99.90
41985;DHT22;28319;48.116;10.818;2024-01-06T00:25:44;5.40;99.90
41985;DHT22;28319;48.116;10.818;2024-01-06T00:30:46;5.40;99.90
41985;DHT22;28319;48.116;10.818;2024-01-06T00:35:48;5.50;99.90
41985;DHT22;28319;48.116;10.818;2024-01-06T00:40:52;5.50;99.90
41985;DHT22;28319;48.116;10.818;2024-01-06T00:45:54;5.50;99.90
41985;DHT22;28319;48.116;10.818;2024-01-06T00:50:56;5.50;99.90
41985;DHT22;28319;48.116;10.818;2024-01-06T00:55:59;5.40;99.90
41985;DHT22;28319;48.116;10.818;2024-01-06T01:01:01;5.40;99.90
41985;DHT22;28319;48.116;10.818;2024-01-06T01:06:04;5.50;99.90
41985;DHT22;28319;48.116;10.818;2024-01-06T01:11:07;5.50;99.90
41985;DHT22;28319;48.116;10.818;2024-01-06T01:16:09;5.50;99.90
41985;DHT22;28319;48.116;10.818;2024-01-06T01:21:11;5.50;99.90
41985;DHT22;28319;48.116;10.818;2024-01-06T01:26:14;5.50;99.90
41985;DHT22;28319;48.116;10.818;2024-01-06T01:31:16;5.50;99.90
41985;DHT22;28319;48.116;10.818;2024-01-06T01:36:18;5.50;99.90
41985;DHT22;28319;48.116;10.818;2024-01-06T01:41:22;5.40;99.90
41985;DHT22;28319;48.116;10.818;2024-01-06T01:46:25;5.30;99.90
41985;DHT22;28319;48.116;10.818;2024-01-06T01:51:29;5.10;99.90
41985;DHT22;28319;48.116;10.818;2024-01-06T01:56:33;5.20;99.90
41985;DHT22;28319;48.116;10.818;2024-01-06T02:01:35;5.30;99.90
41985;DHT22;28319;48.116;10.818;2024-01-06T02:06:37;5.30;99.90
41985;DHT22;28319;48.116;10.818;2024-01-06T02:11:41;5.40;99.90
41985;DHT22;28319;48.116;10.818;2024-01-06T02:16:43;5.40;99.90
41985;DHT22;28319;48.116;10.818;2024-01-06T02:21:49;5.30;99.90
41985;DHT22;28319;48.116;10.818;2024-01-06T02:26:51;5.30;99.90
41985;DHT22;28319;48.116;10.818;2024-01-06T02:31:53;5.20;99.90
41985;DHT22;28319;48.116;10.818;2024-01-06T02:36:56;5.00;99.90
41985;DHT22;28319;48.116;10.818;2024-01-06T02:41:58;5.00;99.90
41985;DHT22;28319;48.116;10.818;2024-01-06T02:47:00;4.90;99.90
41985;DHT22;28319;48.116;10.818;2024-01-06T02:52:04;4.90;99.90
41985;DHT22;28319;48.116;10.818;2024-01-06T02:57:06;4.90;99.90
41985;DHT22;28319;48.116;10.818;2024-01-06T03:02:08;4.80;99.90
41985;DHT22;28319;48.116;10.818;2024-01-06T03:07:11;4.70;99.90
41985;DHT22;28319;48.116;10.818;2024-01-06T03:12:13;4.70;99.90
41985;DHT22;28319;48.116;10.818;2024-01-06T03:17:15;4.50;99.90
41985;DHT22;28319;48.116;10.818;2024-01-06T03:22:19;4.50;99.90
41985;DHT22;28319;48.116;10.818;2024-01-06T03:27:21;4.40;99.90
41985;DHT22;28319;48.116;10.818;2024-01-06T03:32:23;4.60;99.90
41985;DHT22;28319;48.116;10.818;2024-01-06T03:37:26;4.30;99.90
41985;DHT22;28319;48.116;10.818;2024-01-06T03:42:28;4.30;99.90
41985;DHT22;28319;48.116;10.818;2024-01-06T03:47:30;4.30;99.90
41985;DHT22;28319;48.116;10.818;2024-01-06T03:52:34;4.30;99.90
41985;DHT22;28319;48.116;10.818;2024-01-06T03:57:35;4.60;99.90
41985;DHT22;28319;48.116;10.818;2024-01-06T04:02:37;4.20;99.90
41985;DHT22;28319;48.116;10.818;2024-01-06T04:07:41;4.10;99.90
41985;DHT22;28319;48.116;10.818;2024-01-06T04:12:43;4.50;99.90
41985;DHT22;28319;48.116;10.818;2024-01-06T04:17:48;3.90;99.90
41985;DHT22;28319;48.116;10.818;2024-01-06T04:22:51;3.90;99.90
41985;DHT22;28319;48.116;10.818;2024-01-06T04:27:53;3.90;99.90
41985;DHT22;28319;48.116;10.818;2024-01-06T04:32:55;4.20;99.90
41985;DHT22;28319;48.116;10.818;2024-01-06T04:37:59;4.20;99.90
41985;DHT22;28319;48.116;10.818;2024-01-06T04:43:01;3.80;99.90
41985;DHT22;28319;48.116;10.818;2024-01-06T04:48:04;4.20;99.90
41985;DHT22;28319;48.116;10.818;2024-01-06T04:53:08;4.10;99.90
41985;DHT22;28319;48.116;10.818;2024-01-06T04:58:10;4.20;99.90
41985;DHT22;28319;48.116;10.818;2024-01-06T05:03:12;4.50;99.90
41985;DHT22;28319;48.116;10.818;2024-01-06T05:08:15;4.40;99.90
41985;DHT22;28319;48.116;10.818;2024-01-06T05:13:18;3.80;99.90
41985;DHT22;28319;48.116;10.818;2024-01-06T05:18:19;4.30;99.90
41985;DHT22;28319;48.116;10.818;2024-01-06T05:23:23;4.20;99.90
41985;DHT22;28319;48.116;10.818;2024-01-06T05:28:25;4.10;99.90
41985;DHT22;28319;48.116;10.818;2024-01-06T05:33:27;4.10;99.90
41985;DHT22;28319;48.116;10.818;2024-01-06T05:38:30;3.90;99.90
41985;DHT22;28319;48.116;10.818;2024-01-06T05:43:32;4.00;99.90
41985;DHT22;28319;48.116;10.818;2024-01-06T05:48:34;3.80;99.90
41985;DHT22;28319;48.116;10.818;2024-01-06T05:53:37;3.90;99.90
41985;DHT22;28319;48.116;10.818;2024-01-06T05:58:39;4.10;99.90
41985;DHT22;28319;48.116;10.818;2024-01-06T06:03:41;4.20;99.90
41985;DHT22;28319;48.116;10.818;2024-01-06T06:08:45;4.20;99.90
41985;DHT22;28319;48.116;10.818;2024-01-06T06:13:49;4.50;99.90
41985;DHT22;28319;48.116;10.818;2024-01-06T06:18:51;4.20;99.90
41985;DHT22;28319;48.116;10.818;2024-01-06T06:23:54;4.10;99.90
41985;DHT22;28319;48.116;10.818;2024-01-06T06:28:56;4.20;99.90
41985;DHT22;28319;48.116;10.818;2024-01-06T06:33:58;4.20;99.90
41985;DHT22;28319;48.116;10.818;2024-01-06T06:39:01;4.30;99.90
41985;DHT22;28319;48.116;10.818;2024-01-06T06:44:04;4.00;99.90
41985;DHT22;28319;48.116;10.818;2024-01-06T06:49:06;4.30;99.90
41985;DHT22;28319;48.116;10.818;2024-01-06T06:54:10;4.20;99.90
41985;DHT22;28319;48.116;10.818;2024-01-06T06:59:11;4.20;99.90
41985;DHT22;28319;48.116;10.818;2024-01-06T07:04:14;4.30;99.90
41985;DHT22;28319;48.116;10.818;2024-01-06T07:09:17;4.10;99.90
41985;DHT22;28319;48.116;10.818;2024-01-06T07:14:19;3.60;99.90
41985;DHT22;28319;48.116;10.818;2024-01-06T07:19:21;3.80;99.90
41985;DHT22;28319;48.116;10.818;2024-01-06T07:24:24;4.10;99.90
41985;DHT22;28319;48.116;10.818;2024-01-06T07:29:27;4.10;99.90
41985;DHT22;28319;48.116;10.818;2024-01-06T07:34:29;3.70;99.90
41985;DHT22;28319;48.116;10.818;2024-01-06T07:39:32;4.30;99.90
41985;DHT22;28319;48.116;10.818;2024-01-06T07:44:34;4.30;99.90
41985;DHT22;28319;48.116;10.818;2024-01-06T07:49:36;3.90;99.90
41985;DHT22;28319;48.116;10.818;2024-01-06T07:54:39;3.70;99.90
41985;DHT22;28319;48.116;10.818;2024-01-06T07:59:41;3.90;99.90
41985;DHT22;28319;48.116;10.818;2024-01-06T08:04:43;3.70;99.90
41985;DHT22;28319;48.116;10.818;2024-01-06T08:09:47;4.10;99.90
41985;DHT22;28319;48.116;10.818;2024-01-06T08:14:48;3.80;99.90
41985;DHT22;28319;48.116;10.818;2024-01-06T08:19:50;3.60;99.90
41985;DHT22;28319;48.116;10.818;2024-01-06T08:24:54;3.80;99.90
41985;DHT22;28319;48.116;10.818;2024-01-06T08:29:56;3.80;99.90
41985;DHT22;28319;48.116;10.818;2024-01-06T08:34:58;4.20;99.90
41985;DHT22;28319;48.116;10.818;2024-01-06T08:40:01;3.90;99.90
41985;DHT22;28319;48.116;10.818;2024-01-06T08:45:04;4.00;99.90
41985;DHT22;28319;48.116;10.818;2024-01-06T08:50:07;3.60;99.90
41985;DHT22;28319;48.116;10.818;2024-01-06T08:55:10;3.60;99.90
41985;DHT22;28319;48.116;10.818;2024-01-06T09:00:13;3.80;99.90
41985;DHT22;28319;48.116;10.818;2024-01-06T09:05:16;3.70;99.90
41985;DHT22;28319;48.116;10.818;2024-01-06T09:10:19;4.20;99.90
41985;DHT22;28319;48.116;10.818;2024-01-06T09:15:21;4.10;99.90
41985;DHT22;28319;48.116;10.818;2024-01-06T09:20:23;4.20;99.90
41985;DHT22;28319;48.116;10.818;2024-01-06T09:25:27;3.70;99.90
41985;DHT22;28319;48.116;10.818;2024-01-06T09:30:28;4.00;99.90
41985;DHT22;28319;48.116;10.818;2024-01-06T09:35:30;4.20;99.90
41985;DHT22;28319;48.116;10.818;2024-01-06T09:40:35;3.70;99.90
41985;DHT22;28319;48.116;10.818;2024-01-06T09:45:43;3.60;99.90
41985;DHT22;28319;48.116;10.818;2024-01-06T09:50:48;3.60;99.90
41985;DHT22;28319;48.116;10.818;2024-01-06T09:55:52;3.60;99.90
41985;DHT22;28319;48.116;10.818;2024-01-06T10:00:55;3.50;99.90
41985;DHT22;28319;48.116;10.818;2024-01-06T10:05:57;3.90;99.90
41985;DHT22;28319;48.116;10.818;2024-01-06T10:11:02;3.70;99.90
41985;DHT22;28319;48.116;10.818;2024-01-06T10:16:05;3.60;99.90
41985;DHT22;28319;48.116;10.818;2024-01-06T10:21:07;3.60;99.90
41985;DHT22;28319;48.116;10.818;2024-01-06T10:26:13;4.30;99.90
41985;DHT22;28319;48.116;10.818;2024-01-06T10:31:15;4.30;99.90
41985;DHT22;28319;48.116;10.818;2024-01-06T10:36:17;3.80;99.90
41985;DHT22;28319;48.116;10.818;2024-01-06T10:41:21;4.20;99.90
41985;DHT22;28319;48.116;10.818;2024-01-06T10:46:25;4.20;99.90
41985;DHT22;28319;48.116;10.818;2024-01-06T10:51:28;3.60;99.90
41985;DHT22;28319;48.116;10.818;2024-01-06T10:56:36;3.70;99.90
41985;DHT22;28319;48.116;10.818;2024-01-06T11:01:39;3.60;99.90
41985;DHT22;28319;48.116;10.818;2024-01-06T11:06:42;4.30;99.90
41985;DHT22;28319;48.116;10.818;2024-01-06T11:11:46;4.30;99.90
41985;DHT22;28319;48.116;10.818;2024-01-06T11:16:48;3.60;99.90
41985;DHT22;28319;48.116;10.818;2024-01-06T11:21:50;4.10;99.90
41985;DHT22;28319;48.116;10.818;2024-01-06T11:26:57;4.30;99.90
41985;DHT22;28319;48.116;10.818;2024-01-06T11:32:18;3.90;99.90
41985;DHT22;28319;48.116;10.818;2024-01-06T11:37:25;3.60;99.90
41985;DHT22;28319;48.116;10.818;2024-01-06T11:42:33;3.70;99.90
41985;DHT22;28319;48.116;10.818;2024-01-06T11:47:36;4.30;99.90
41985;DHT22;28319;48.116;10.818;2024-01-06T11:52:38;3.70;99.90
41985;DHT22;28319;48.116;10.818;2024-01-06T11:57:41;4.00;99.90
41985;DHT22;28319;48.116;10.818;2024-01-06T12:02:43;4.30;99.90
41985;DHT22;28319;48.116;10.818;2024-01-06T12:07:53;4.20;99.90
41985;DHT22;28319;48.116;10.818;2024-01-06T12:13:01;4.10;99.90
41985;DHT22;28319;48.116;10.818;2024-01-06T12:18:04;3.80;99.90
41985;DHT22;28319;48.116;10.818;2024-01-06T12:23:06;3.80;99.90
41985;DHT22;28319;48.116;10.818;2024-01-06T12:28:10;4.10;99.90
41985;DHT22;28319;48.116;10.818;2024-01-06T12:33:12;4.20;99.90
41985;DHT22;28319;48.116;10.818;2024-01-06T12:38:15;4.00;99.90
41985;DHT22;28319;48.116;10.818;2024-01-06T12:43:18;4.20;99.90
41985;DHT22;28319;48.116;10.818;2024-01-06T12:48:20;4.20;99.90
41985;DHT22;28319;48.116;10.818;2024-01-06T12:53:22;4.20;99.90
41985;DHT22;28319;48.116;10.818;2024-01-06T12:58:26;4.70;99.90
41985;DHT22;28319;48.116;10.818;2024-01-06T13:03:28;4.20;99.90
41985;DHT22;28319;48.116;10.818;2024-01-06T13:08:30;4.00;99.90
41985;DHT22;28319;48.116;10.818;2024-01-06T13:13:33;4.10;99.90
41985;DHT22;28319;48.116;10.818;2024-01-06T13:18:35;4.10;99.90
41985;DHT22;28319;48.116;10.818;2024-01-06T13:23:37;4.00;99.90
41985;DHT22;28319;48.116;10.818;2024-01-06T13:28:40;4.30;99.90
41985;DHT22;28319;48.116;10.818;2024-01-06T13:33:44;4.00;99.90
41985;DHT22;28319;48.116;10.818;2024-01-06T13:38:46;4.10;99.90
41985;DHT22;28319;48.116;10.818;2024-01-06T13:43:50;4.60;99.90
41985;DHT22;28319;48.116;10.818;2024-01-06T13:48:52;4.10;99.90
41985;DHT22;28319;48.116;10.818;2024-01-06T13:53:54;4.00;99.90
41985;DHT22;28319;48.116;10.818;2024-01-06T13:58:57;4.20;99.90
41985;DHT22;28319;48.116;10.818;2024-01-06T14:03:59;4.10;99.90
41985;DHT22;28319;48.116;10.818;2024-01-06T14:09:02;4.50;99.90
41985;DHT22;28319;48.116;10.818;2024-01-06T14:14:07;4.60;99.90
41985;DHT22;28319;48.116;10.818;2024-01-06T14:19:09;4.40;99.90
41985;DHT22;28319;48.116;10.818;2024-01-06T14:24:11;4.40;99.90
41985;DHT22;28319;48.116;10.818;2024-01-06T14:29:15;4.20;99.90
41985;DHT22;28319;48.116;10.818;2024-01-06T14:34:17;3.90;99.90
41985;DHT22;28319;48.116;10.818;2024-01-06T14:39:19;4.40;99.90
41985;DHT22;28319;48.116;10.818;2024-01-06T14:44:24;4.20;99.90
41985;DHT22;28319;48.116;10.818;2024-01-06T14:49:28;3.80;99.90
41985;DHT22;28319;48.116;10.818;2024-01-06T14:54:30;4.40;99.90
41985;DHT22;28319;48.116;10.818;2024-01-06T14:59:35;4.40;99.90
41985;DHT22;28319;48.116;10.818;2024-01-06T15:04:37;4.20;99.90
41985;DHT22;28319;48.116;10.818;2024-01-06T15:09:39;4.20;99.90
41985;DHT22;28319;48.116;10.818;2024-01-06T15:14:43;4.40;99.90
41985;DHT22;28319;48.116;10.818;2024-01-06T15:19:45;3.90;99.90
41985;DHT22;28319;48.116;10.818;2024-01-06T15:24:47;3.90;99.90
41985;DHT22;28319;48.116;10.818;2024-01-06T15:29:51;4.10;99.90
41985;DHT22;28319;48.116;10.818;2024-01-06T15:34:53;3.90;99.90
41985;DHT22;28319;48.116;10.818;2024-01-06T15:39:54;3.90;99.90
41985;DHT22;28319;48.116;10.818;2024-01-06T15:44:58;3.70;99.90
41985;DHT22;28319;48.116;10.818;2024-01-06T15:50:00;3.80;99.90
41985;DHT22;28319;48.116;10.818;2024-01-06T15:55:05;4.30;99.90
41985;DHT22;28319;48.116;10.818;2024-01-06T16:00:10;3.60;99.90
41985;DHT22;28319;48.116;10.818;2024-01-06T16:05:13;3.80;99.90
41985;DHT22;28319;48.116;10.818;2024-01-06T16:10:15;3.70;99.90
41985;DHT22;28319;48.116;10.818;2024-01-06T16:15:18;4.10;99.90
41985;DHT22;28319;48.116;10.818;2024-01-06T16:20:21;4.20;99.90
41985;DHT22;28319;48.116;10.818;2024-01-06T16:25:23;4.00;99.90
41985;DHT22;28319;48.116;10.818;2024-01-06T16:30:27;3.60;99.90
41985;DHT22;28319;48.116;10.818;2024-01-06T16:35:29;3.70;99.90
41985;DHT22;28319;48.116;10.818;2024-01-06T16:40:31;4.20;99.90
41985;DHT22;28319;48.116;10.818;2024-01-06T16:45:34;3.80;99.90
41985;DHT22;28319;48.116;10.818;2024-01-06T16:50:36;4.10;99.90
41985;DHT22;28319;48.116;10.818;2024-01-06T16:55:38;3.90;99.90
41985;DHT22;28319;48.116;10.818;2024-01-06T17:00:41;3.80;99.90
41985;DHT22;28319;48.116;10.818;2024-01-06T17:05:43;3.50;99.90
41985;DHT22;28319;48.116;10.818;2024-01-06T17:10:45;4.10;99.90
41985;DHT22;28319;48.116;10.818;2024-01-06T17:15:48;3.50;99.90
41985;DHT22;28319;48.116;10.818;2024-01-06T17:20:50;3.50;99.90
41985;DHT22;28319;48.116;10.818;2024-01-06T17:25:52;3.90;99.90
41985;DHT22;28319;48.116;10.818;2024-01-06T17:30:56;3.50;99.90
41985;DHT22;28319;48.116;10.818;2024-01-06T17:35:58;3.40;99.90
41985;DHT22;28319;48.116;10.818;2024-01-06T17:41:01;3.20;99.90
41985;DHT22;28319;48.116;10.818;2024-01-06T17:46:05;3.10;99.90
41985;DHT22;28319;48.116;10.818;2024-01-06T17:51:07;3.20;99.90
41985;DHT22;28319;48.116;10.818;2024-01-06T17:56:10;3.70;99.90
41985;DHT22;28319;48.116;10.818;2024-01-06T18:01:14;3.20;99.90
41985;DHT22;28319;48.116;10.818;2024-01-06T18:06:16;2.90;99.90
41985;DHT22;28319;48.116;10.818;2024-01-06T18:11:18;3.00;99.90
41985;DHT22;28319;48.116;10.818;2024-01-06T18:16:21;3.70;99.90
41985;DHT22;28319;48.116;10.818;2024-01-06T18:21:23;3.60;99.90
41985;DHT22;28319;48.116;10.818;2024-01-06T18:26:25;2.90;99.90
41985;DHT22;28319;48.116;10.818;2024-01-06T18:31:28;2.80;99.90
41985;DHT22;28319;48.116;10.818;2024-01-06T18:36:30;3.00;99.90
41985;DHT22;28319;48.116;10.818;2024-01-06T18:41:32;3.00;99.90
41985;DHT22;28319;48.116;10.818;2024-01-06T18:46:36;3.40;99.90
41985;DHT22;28319;48.116;10.818;2024-01-06T18:51:38;3.30;99.90
41985;DHT22;28319;48.116;10.818;2024-01-06T18:56:40;3.60;99.90
41985;DHT22;28319;48.116;10.818;2024-01-06T19:01:43;2.70;99.90
41985;DHT22;28319;48.116;10.818;2024-01-06T19:06:46;2.90;99.90
41985;DHT22;28319;48.116;10.818;2024-01-06T19:11:48;2.90;99.90
41985;DHT22;28319;48.116;10.818;2024-01-06T19:16:51;2.90;99.90
41985;DHT22;28319;48.116;10.818;2024-01-06T19:21:53;2.90;99.90
41985;DHT22;28319;48.116;10.818;2024-01-06T19:26:55;3.00;99.90
41985;DHT22;28319;48.116;10.818;2024-01-06T19:31:59;3.00;99.90
41985;DHT22;28319;48.116;10.818;2024-01-06T19:37:00;3.50;99.90
41985;DHT22;28319;48.116;10.818;2024-01-06T19:42:03;3.30;99.90
41985;DHT22;28319;48.116;10.818;2024-01-06T19:47:08;3.10;99.90
41985;DHT22;28319;48.116;10.818;2024-01-06T19:52:10;3.10;99.90
41985;DHT22;28319;48.116;10.818;2024-01-06T19:57:13;3.20;99.90
41985;DHT22;28319;48.116;10.818;2024-01-06T20:02:18;3.10;99.90
41985;DHT22;28319;48.116;10.818;2024-01-06T20:07:20;3.30;99.90
41985;DHT22;28319;48.116;10.818;2024-01-06T20:12:27;3.00;99.90
41985;DHT22;28319;48.116;10.818;2024-01-06T20:17:30;3.10;99.90
41985;DHT22;28319;48.116;10.818;2024-01-06T20:22:33;3.00;99.90
41985;DHT22;28319;48.116;10.818;2024-01-06T20:27:34;3.00;99.90
41985;DHT22;28319;48.116;10.818;2024-01-06T20:32:38;3.20;99.90
41985;DHT22;28319;48.116;10.818;2024-01-06T20:37:40;3.10;99.90
41985;DHT22;28319;48.116;10.818;2024-01-06T20:42:42;3.50;99.90
41985;DHT22;28319;48.116;10.818;2024-01-06T20:47:45;3.70;99.90
41985;DHT22;28319;48.116;10.818;2024-01-06T20:52:47;3.60;99.90
41985;DHT22;28319;48.116;10.818;2024-01-06T20:57:49;3.70;99.90
41985;DHT22;28319;48.116;10.818;2024-01-06T21:02:52;3.60;99.90
41985;DHT22;28319;48.116;10.818;2024-01-06T21:07:54;2.90;99.90
41985;DHT22;28319;48.116;10.818;2024-01-06T21:12:56;2.90;99.90
41985;DHT22;28319;48.116;10.818;2024-01-06T21:17:59;3.50;99.90
41985;DHT22;28319;48.116;10.818;2024-01-06T21:23:02;2.90;99.90
41985;DHT22;28319;48.116;10.818;2024-01-06T21:28:05;2.80;99.90
41985;DHT22;28319;48.116;10.818;2024-01-06T21:33:09;2.80;99.90
41985;DHT22;28319;48.116;10.818;2024-01-06T21:38:11;2.70;99.90
41985;DHT22;28319;48.116;10.818;2024-01-06T21:43:13;2.80;99.90
41985;DHT22;28319;48.116;10.818;2024-01-06T21:48:17;2.70;99.90
41985;DHT22;28319;48.116;10.818;2024-01-06T21:53:18;2.50;99.90
41985;DHT22;28319;48.116;10.818;2024-01-06T21:58:20;2.60;99.90
41985;DHT22;28319;48.116;10.818;2024-01-06T22:03:24;3.30;99.90
41985;DHT22;28319;48.116;10.818;2024-01-06T22:08:26;2.60;99.90
41985;DHT22;28319;48.116;10.818;2024-01-06T22:13:29;2.60;99.90
41985;DHT22;28319;48.116;10.818;2024-01-06T22:18:32;2.60;99.90
41985;DHT22;28319;48.116;10.818;2024-01-06T22:23:34;2.60;99.90
41985;DHT22;28319;48.116;10.818;2024-01-06T22:28:36;3.10;99.90
41985;DHT22;28319;48.116;10.818;2024-01-06T22:33:39;2.60;99.90
41985;DHT22;28319;48.116;10.818;2024-01-06T22:38:41;3.30;99.90
41985;DHT22;28319;48.116;10.818;2024-01-06T22:43:43;2.50;99.90
41985;DHT22;28319;48.116;10.818;2024-01-06T22:48:47;2.40;99.90
41985;DHT22;28319;48.116;10.818;2024-01-06T22:53:48;2.40;99.90
41985;DHT22;28319;48.116;10.818;2024-01-06T22:58:50;2.40;99.90
41985;DHT22;28319;48.116;10.818;2024-01-06T23:03:54;2.30;99.90
41985;DHT22;28319;48.116;10.818;2024-01-06T23:08:56;2.30;99.90
41985;DHT22;28319;48.116;10.818;2024-01-06T23:13:58;2.20;99.90
41985;DHT22;28319;48.116;10.818;2024-01-06T23:19:01;2.30;99.90
41985;DHT22;28319;48.116;10.818;2024-01-06T23:24:03;2.20;99.90
41985;DHT22;28319;48.116;10.818;2024-01-06T23:29:05;2.20;99.90
41985;DHT22;28319;48.116;10.818;2024-01-06T23:34:09;2.10;99.90
41985;DHT22;28319;48.116;10.818;2024-01-06T23:39:11;2.60;99.90
41985;DHT22;28319;48.116;10.818;2024-01-06T23:44:13;2.10;99.90
41985;DHT22;28319;48.116;10.818;2024-01-06T23:49:17;2.20;99.90
41985;DHT22;28319;48.116;10.818;2024-01-06T23:54:19;2.10;99.90
41985;DHT22;28319;48.116;10.818;2024-01-06T23:59:21;2.10;99.90
